Time;durP1;ratioP1;P1;durP2;ratioP2;P2;SDS_P1;SDS_P2;PMS_P1;PMS_P2;Temp;Humidity;BMP_temperature;BMP_pressure;BME280_temperature;BME280_humidity;BME280_pressure;Samples;Min_cycle;Max_cycle;Signal;HPM_P1;HPM_P2
2022/01/15 00:01:57;;;;;;;11.60;7.95;;;;;;;20.69;nan;101128.31;20403569;28;101167;-64
2022/01/15 00:11:58;;;;;;;11.48;7.78;;;;;;;20.68;nan;101140.66;20420385;28;100962;-64
2022/01/15 00:21:58;;;;;;;11.40;7.20;;;;;;;20.64;nan;101147.91;20422921;28;98634;-64
2022/01/15 00:32:02;;;;;;;11.23;6.32;;;;;;;20.60;nan;101156.94;20376654;28;99261;-64
2022/01/15 00:42:03;;;;;;;9.40;6.28;;;;;;;20.56;nan;101157.22;20387150;28;100363;-65
2022/01/15 00:52:04;;;;;;;8.60;6.10;;;;;;;20.54;nan;101172.25;20402513;28;101702;-65
2022/01/15 01:02:06;;;;;;;7.80;5.43;;;;;;;20.50;nan;101181.28;20394765;28;98154;-65
2022/01/15 01:12:23;;;;;;;8.35;5.28;;;;;;;20.45;nan;101194.72;20393206;28;97852;-65
2022/01/15 01:32:51;;;;;;;6.47;4.55;;;;;;;20.41;nan;101222.13;20416660;28;99194;-64
2022/01/15 01:42:59;;;;;;;7.63;4.93;;;;;;;20.38;nan;101209.19;20418496;28;99732;-64
2022/01/15 01:53:01;;;;;;;5.45;4.53;;;;;;;20.36;nan;101213.69;20416527;28;97318;-65
2022/01/15 02:03:02;;;;;;;5.68;4.32;;;;;;;20.34;nan;101210.31;20406315;28;99339;-65
2022/01/15 02:13:02;;;;;;;5.65;4.22;;;;;;;20.31;nan;101227.09;20418604;28;101126;-64
2022/01/15 02:33:25;;;;;;;5.75;4.18;;;;;;;20.26;nan;101209.00;20379144;28;102354;-65
2022/01/15 02:43:32;;;;;;;4.88;3.75;;;;;;;20.23;nan;101209.16;20355328;28;102232;-65
2022/01/15 02:53:32;;;;;;;4.10;3.33;;;;;;;20.19;nan;101202.41;20351793;28;101152;-65
2022/01/15 03:03:34;;;;;;;4.15;3.50;;;;;;;20.18;nan;101205.09;20361122;28;101918;-64
2022/01/15 03:13:37;;;;;;;4.63;3.65;;;;;;;20.17;nan;101214.78;20373804;28;97528;-64
2022/01/15 03:23:39;;;;;;;4.10;3.00;;;;;;;20.13;nan;101227.28;20355915;28;102845;-64
2022/01/15 03:33:41;;;;;;;3.40;2.80;;;;;;;20.13;nan;101239.59;20370900;28;101551;-64
2022/01/15 03:43:44;;;;;;;3.80;2.95;;;;;;;20.11;nan;101229.16;20335527;28;99420;-64
2022/01/15 03:53:46;;;;;;;3.00;2.67;;;;;;;20.11;nan;101229.16;20404968;28;101117;-64
2022/01/15 04:03:47;;;;;;;3.72;2.85;;;;;;;20.11;nan;101238.81;20391585;28;101011;-62
2022/01/15 04:13:48;;;;;;;3.53;2.78;;;;;;;20.10;nan;101271.31;20400806;28;101341;-65
2022/01/15 04:23:49;;;;;;;4.07;2.90;;;;;;;20.10;nan;101287.09;20418191;28;101641;-64
2022/01/15 04:33:49;;;;;;;2.72;2.42;;;;;;;20.11;nan;101288.78;20417028;28;98368;-64
2022/01/15 04:43:51;;;;;;;3.53;2.67;;;;;;;20.07;nan;101285.50;20414772;28;100631;-64
2022/01/15 04:53:51;;;;;;;3.05;2.60;;;;;;;20.06;nan;101296.94;20416014;28;98790;-63
2022/01/15 05:03:52;;;;;;;2.80;2.30;;;;;;;20.05;nan;101308.38;20407159;28;100917;-65
2022/01/15 05:13:52;;;;;;;3.05;2.30;;;;;;;20.11;nan;101307.19;20415104;28;100262;-63
2022/01/15 05:23:54;;;;;;;2.53;2.20;;;;;;;20.20;nan;101293.50;20414820;28;101986;-64
2022/01/15 05:33:56;;;;;;;2.72;2.30;;;;;;;20.29;nan;101297.38;20412642;28;101143;-66
2022/01/15 05:44:01;;;;;;;2.53;2.05;;;;;;;20.36;nan;101319.75;20413108;28;101901;-68
2022/01/15 05:54:03;;;;;;;2.90;1.90;;;;;;;20.42;nan;101335.19;20412756;28;97212;-65
2022/01/15 06:04:05;;;;;;;3.17;2.20;;;;;;;20.47;nan;101332.28;20414202;28;101241;-64
2022/01/15 06:14:06;;;;;;;2.42;2.05;;;;;;;20.54;nan;101335.38;20414192;28;101643;-64
2022/01/15 06:24:06;;;;;;;2.00;1.80;;;;;;;20.55;nan;101350.22;20419871;28;99352;-64
2022/01/15 06:34:08;;;;;;;4.50;1.90;;;;;;;20.62;nan;101346.28;20412177;28;101027;-65
2022/01/15 06:44:10;;;;;;;5.15;2.28;;;;;;;20.71;nan;101347.53;20391968;28;102526;-64
2022/01/15 06:54:10;;;;;;;5.65;1.70;;;;;;;20.78;nan;101368.13;20409342;28;98762;-64
2022/01/15 07:04:11;;;;;;;10.68;2.15;;;;;;;20.90;nan;101368.38;20402013;28;100745;-65
2022/01/15 07:14:11;;;;;;;2.38;1.70;;;;;;;21.07;nan;101372.59;20415039;28;98539;-65
2022/01/15 07:24:12;;;;;;;3.08;1.80;;;;;;;21.19;nan;101377.09;20427628;28;98047;-64
2022/01/15 07:34:14;;;;;;;3.20;1.67;;;;;;;21.32;nan;101403.50;20427999;28;97667;-64
2022/01/15 07:44:14;;;;;;;2.67;1.83;;;;;;;21.35;nan;101395.44;20425666;28;104181;-66
2022/01/15 07:54:16;;;;;;;4.43;1.90;;;;;;;21.43;nan;101409.00;20427770;28;101873;-63
2022/01/15 08:04:18;;;;;;;3.03;1.67;;;;;;;21.46;nan;101413.22;20407764;28;99573;-64
2022/01/15 08:14:18;;;;;;;7.60;2.20;;;;;;;21.51;nan;101413.78;20421102;28;102842;-63
2022/01/15 08:24:20;;;;;;;13.30;2.30;;;;;;;21.37;nan;101425.19;20418003;28;99090;-65
2022/01/15 08:34:21;;;;;;;19.73;2.37;;;;;;;21.47;nan;101421.97;20426259;28;97412;-65
2022/01/15 08:44:25;;;;;;;36.20;2.78;;;;;;;21.51;nan;101415.56;20410080;28;99604;-65
2022/01/15 08:54:27;;;;;;;12.35;2.25;;;;;;;21.56;nan;101417.00;20401784;28;97973;-64
2022/01/15 09:04:27;;;;;;;7.90;2.55;;;;;;;21.61;nan;101413.25;20410811;28;97758;-64
2022/01/15 09:14:29;;;;;;;8.20;3.30;;;;;;;21.57;nan;101408.16;20429173;28;98728;-65
2022/01/15 09:24:29;;;;;;;10.32;3.38;;;;;;;21.60;nan;101415.00;20423356;28;98592;-65
2022/01/15 09:34:32;;;;;;;10.30;4.50;;;;;;;21.65;nan;101404.19;20434740;28;101980;-65
2022/01/15 09:44:34;;;;;;;19.90;5.53;;;;;;;21.69;nan;101409.16;20428944;28;100676;-65
2022/01/15 09:54:38;;;;;;;19.90;6.43;;;;;;;21.72;nan;101405.50;20395134;28;98288;-65
2022/01/15 10:04:39;;;;;;;23.15;6.63;;;;;;;21.80;nan;101394.44;20363999;28;101196;-64
2022/01/15 10:14:42;;;;;;;16.13;7.35;;;;;;;21.85;nan;101402.91;20379536;28;97174;-66
2022/01/15 10:24:59;;;;;;;17.50;6.88;;;;;;;21.87;nan;101393.97;20421322;28;98726;-65
2022/01/15 10:35:08;;;;;;;12.73;7.38;;;;;;;21.94;nan;101378.59;20427860;28;97552;-65
2022/01/15 10:45:13;;;;;;;12.52;6.80;;;;;;;21.98;nan;101379.22;20413653;28;98190;-65
2022/01/15 10:55:16;;;;;;;13.25;7.32;;;;;;;22.02;nan;101360.47;20369564;28;100141;-64
2022/01/15 11:05:50;;;;;;;14.97;7.80;;;;;;;22.12;nan;101354.56;20377459;28;101829;-65
2022/01/15 11:15:54;;;;;;;21.20;9.00;;;;;;;22.22;nan;101355.66;20347369;28;99325;-64
2022/01/15 11:25:58;;;;;;;20.52;10.00;;;;;;;22.35;nan;101351.25;20347347;28;102632;-64
2022/01/15 11:36:00;;;;;;;21.58;11.52;;;;;;;22.53;nan;101346.56;20416228;28;100843;-64
2022/01/15 11:46:20;;;;;;;25.00;13.30;;;;;;;22.68;nan;101349.94;20354335;28;101035;-64
2022/01/15 11:56:26;;;;;;;24.75;13.48;;;;;;;22.81;nan;101342.03;20362612;28;99324;-65
2022/01/15 12:06:26;;;;;;;21.25;12.10;;;;;;;22.91;nan;101325.53;20383444;28;101904;-64
2022/01/15 12:16:31;;;;;;;23.55;11.13;;;;;;;22.97;nan;101323.31;20389581;28;101221;-64
2022/01/15 12:26:32;;;;;;;19.33;10.52;;;;;;;23.01;nan;101303.66;20389161;28;98614;-65
2022/01/15 12:36:46;;;;;;;19.27;8.65;;;;;;;23.05;nan;101309.56;20352166;28;102164;-65
2022/01/15 12:46:54;;;;;;;14.63;8.27;;;;;;;23.10;nan;101304.78;20377155;28;101469;-65
2022/01/15 12:56:54;;;;;;;14.32;7.50;;;;;;;23.12;nan;101310.81;20364052;28;102446;-65
2022/01/15 13:07:01;;;;;;;14.40;6.80;;;;;;;23.14;nan;101300.13;20386554;28;102555;-64
2022/01/15 13:17:02;;;;;;;10.65;6.45;;;;;;;23.16;nan;101296.47;20392728;28;100954;-64
2022/01/15 13:27:04;;;;;;;12.00;5.82;;;;;;;23.17;nan;101295.50;20399923;28;102395;-65
2022/01/15 13:37:19;;;;;;;11.00;5.43;;;;;;;23.15;nan;101285.97;20387915;28;101668;-66
2022/01/15 13:47:19;;;;;;;10.00;4.18;;;;;;;23.01;nan;101294.91;20391514;28;98183;-64
2022/01/15 13:57:24;;;;;;;6.10;2.80;;;;;;;;;;20390221;28;98378;-66
2022/01/15 14:07:25;;;;;;;8.02;2.97;;;;;;;21.06;nan;101284.84;20367823;28;99144;-64
2022/01/15 14:17:27;;;;;;;9.25;3.00;;;;;;;21.63;nan;101284.81;20321190;28;100709;-65
2022/01/15 14:27:27;;;;;;;4.00;1.85;;;;;;;21.84;nan;101287.84;20340616;28;102090;-63
2022/01/15 14:37:28;;;;;;;7.43;1.90;;;;;;;21.96;nan;101286.19;20373514;28;99816;-64
2022/01/15 14:47:30;;;;;;;6.22;2.35;;;;;;;21.98;nan;101286.94;20330056;28;102835;-63
2022/01/15 14:57:30;;;;;;;5.43;2.05;;;;;;;21.94;nan;101296.00;20319655;28;99598;-63
2022/01/15 15:07:31;;;;;;;4.53;2.20;;;;;;;21.90;nan;101298.00;20384899;28;99901;-63
2022/01/15 15:17:33;;;;;;;4.60;2.00;;;;;;;21.98;nan;101303.59;20396479;28;101668;-64
2022/01/15 15:27:35;;;;;;;6.97;1.87;;;;;;;22.00;nan;101295.59;20390242;28;102521;-65
2022/01/15 15:37:36;;;;;;;7.82;1.83;;;;;;;22.00;nan;101287.69;20407507;28;99188;-72
2022/01/15 15:47:36;;;;;;;7.88;2.17;;;;;;;21.99;nan;101291.25;20399457;28;98580;-65
2022/01/15 15:57:39;;;;;;;6.68;2.15;;;;;;;21.99;nan;101292.09;20396127;28;98968;-65
2022/01/15 16:07:41;;;;;;;4.03;2.00;;;;;;;21.99;nan;101300.00;20383061;28;102314;-69
2022/01/15 16:17:42;;;;;;;4.35;1.45;;;;;;;21.98;nan;101300.13;20393903;28;100858;-72
2022/01/15 16:27:43;;;;;;;4.88;1.70;;;;;;;22.00;nan;101317.53;20396333;28;99618;-64
2022/01/15 16:37:45;;;;;;;6.60;1.75;;;;;;;21.98;nan;101313.31;20393570;28;101475;-66
2022/01/15 16:47:46;;;;;;;5.00;1.90;;;;;;;21.87;nan;101306.97;20388646;28;103767;-64
2022/01/15 16:57:48;;;;;;;4.13;1.70;;;;;;;21.81;nan;101303.88;20386718;28;102338;-64
2022/01/15 17:07:50;;;;;;;11.02;2.03;;;;;;;21.84;nan;101308.94;20370372;28;102049;-62
2022/01/15 17:17:51;;;;;;;7.88;1.85;;;;;;;21.85;nan;101321.16;20380275;28;100070;-64
2022/01/15 17:27:52;;;;;;;9.75;1.77;;;;;;;21.85;nan;101329.94;20378738;28;101942;-62
2022/01/15 17:37:52;;;;;;;5.05;1.70;;;;;;;21.93;nan;101339.13;20389236;28;101252;-63
2022/01/15 17:47:53;;;;;;;3.75;1.75;;;;;;;21.97;nan;101346.75;20357576;28;99639;-65
2022/01/15 17:57:55;;;;;;;8.98;1.95;;;;;;;21.99;nan;101342.19;20325028;28;100711;-64
2022/01/15 18:07:58;;;;;;;4.30;2.00;;;;;;;21.99;nan;101347.47;20314499;28;100718;-64
2022/01/15 18:17:59;;;;;;;8.95;2.15;;;;;;;21.88;nan;101342.91;20346430;28;100881;-66
2022/01/15 18:27:59;;;;;;;11.40;2.13;;;;;;;21.81;nan;101331.06;20375570;28;99204;-65
2022/01/15 18:38:00;;;;;;;8.38;2.20;;;;;;;21.73;nan;101320.19;20386378;28;98519;-65
2022/01/15 18:48:01;;;;;;;25.00;5.60;;;;;;;21.24;nan;101332.06;20354904;28;101601;-65
2022/01/15 18:58:02;;;;;;;9.43;3.33;;;;;;;21.39;nan;101349.50;20361635;28;99746;-67
2022/01/15 19:08:03;;;;;;;13.45;3.42;;;;;;;21.47;nan;101358.72;20319636;28;101210;-66
2022/01/15 19:18:04;;;;;;;13.88;3.47;;;;;;;21.52;nan;101382.97;20363493;28;97839;-66
2022/01/15 19:28:07;;;;;;;11.80;3.00;;;;;;;21.54;nan;101395.13;20331184;28;104604;-67
2022/01/15 19:38:09;;;;;;;15.82;3.13;;;;;;;21.54;nan;101389.00;20372659;28;100746;-65
2022/01/15 19:48:11;;;;;;;11.90;3.20;;;;;;;21.53;nan;101430.34;20392239;28;104616;-68
2022/01/15 19:58:12;;;;;;;13.13;3.45;;;;;;;21.48;nan;101350.69;20380564;28;101497;-67
2022/01/15 20:08:12;;;;;;;10.75;2.83;;;;;;;21.46;nan;101346.47;20331091;28;99289;-67
2022/01/15 20:18:13;;;;;;;10.07;4.35;;;;;;;21.29;nan;101382.66;20384252;28;101668;-67
2022/01/15 20:28:13;;;;;;;13.05;4.15;;;;;;;21.31;nan;101370.22;20411007;28;100926;-67
2022/01/15 20:38:16;;;;;;;14.05;3.83;;;;;;;21.30;nan;101359.78;20414877;28;98470;-67
2022/01/15 20:48:17;;;;;;;8.57;4.13;;;;;;;21.27;nan;101380.09;20410336;28;97740;-67
2022/01/15 20:58:19;;;;;;;8.35;3.85;;;;;;;21.27;nan;101382.72;20413035;28;97882;-67
2022/01/15 21:08:26;;;;;;;14.85;4.15;;;;;;;21.23;nan;101360.16;20415198;28;101176;-67
2022/01/15 21:18:26;;;;;;;9.80;4.40;;;;;;;21.21;nan;101398.91;20420995;28;98583;-66
2022/01/15 21:28:27;;;;;;;8.13;3.72;;;;;;;21.16;nan;101398.34;20428861;28;102923;-67
2022/01/15 21:38:29;;;;;;;7.50;3.95;;;;;;;21.15;nan;101403.72;20418337;28;101624;-66
2022/01/15 21:48:30;;;;;;;11.67;4.60;;;;;;;21.13;nan;101384.53;20377418;28;101654;-66
2022/01/15 21:58:30;;;;;;;7.93;3.95;;;;;;;21.09;nan;101399.66;20376709;28;99125;-66
2022/01/15 22:08:31;;;;;;;10.40;4.30;;;;;;;21.03;nan;101403.53;20350374;28;101416;-66
2022/01/15 22:18:32;;;;;;;7.45;4.30;;;;;;;21.00;nan;101416.03;20369036;28;102177;-66
2022/01/15 22:28:34;;;;;;;9.02;4.80;;;;;;;20.97;nan;101419.72;20402733;28;99846;-68
2022/01/15 22:38:36;;;;;;;9.67;5.67;;;;;;;20.91;nan;101435.84;20353444;28;101083;-67
2022/01/15 22:48:36;;;;;;;8.57;4.90;;;;;;;20.87;nan;101429.94;20398669;28;102603;-67
2022/01/15 22:58:37;;;;;;;8.45;5.38;;;;;;;20.82;nan;101437.25;20397168;28;101739;-67
2022/01/15 23:08:37;;;;;;;10.57;5.60;;;;;;;20.76;nan;101427.09;20409731;28;97814;-62
2022/01/15 23:18:38;;;;;;;9.80;5.70;;;;;;;20.71;nan;101411.53;20408680;28;102119;-66
2022/01/15 23:28:39;;;;;;;10.55;5.90;;;;;;;20.66;nan;101408.31;20409561;28;98942;-66
2022/01/15 23:38:39;;;;;;;9.52;5.63;;;;;;;20.64;nan;101415.44;20402785;28;99074;-67
2022/01/15 23:48:43;;;;;;;11.20;6.45;;;;;;;20.62;nan;101419.97;20403877;28;98240;-67
2022/01/15 23:58:45;;;;;;;9.45;5.90;;;;;;;20.58;nan;101421.06;20420842;28;101862;-67
